Time;durP1;ratioP1;P1;durP2;ratioP2;P2;SDS_P1;SDS_P2;PMS_P1;PMS_P2;Temp;Humidity;BMP_temperature;BMP_pressure;BME280_temperature;BME280_humidity;BME280_pressure;Samples;Min_cycle;Max_cycle;Signal;HPM_P1;HPM_P2
2023/01/13 00:00:48;;;;;;;0.82;0.38;;;;;;;10.17;63.72;99100.47;10268672;28;20088;-64
2023/01/13 00:05:50;;;;;;;1.60;0.60;;;;;;;10.22;63.65;99093.97;10276250;28;20066;-64
2023/01/13 00:10:52;;;;;;;1.48;0.77;;;;;;;10.26;63.32;99071.06;10263069;28;20097;-64
2023/01/13 00:16:15;;;;;;;1.50;0.60;;;;;;;10.24;62.81;99072.94;10270155;28;20499;-64
2023/01/13 00:21:23;;;;;;;1.35;0.60;;;;;;;10.36;62.88;99072.91;10270435;28;20616;-64
2023/01/13 00:26:29;;;;;;;1.52;0.65;;;;;;;10.38;62.86;99068.38;10282710;28;20414;-64
2023/01/13 00:31:31;;;;;;;1.33;0.60;;;;;;;10.36;62.98;99062.44;10294109;28;20058;-64
2023/01/13 00:36:33;;;;;;;1.35;0.50;;;;;;;10.31;62.68;99048.88;10288120;28;20438;-64
2023/01/13 00:46:55;;;;;;;0.90;0.50;;;;;;;10.38;62.81;99046.63;10288520;28;20409;-64
2023/01/13 00:52:00;;;;;;;1.27;0.73;;;;;;;10.24;62.66;99050.25;10309576;28;20149;-65
2023/01/13 00:57:03;;;;;;;1.75;0.40;;;;;;;10.34;62.76;99045.19;10308321;28;20054;-64
2023/01/13 01:02:05;;;;;;;1.58;0.60;;;;;;;10.36;62.47;99044.16;10271073;28;20171;-64
2023/01/13 01:07:07;;;;;;;0.50;0.50;;;;;;;10.32;62.34;99031.41;10269286;28;20050;-64
2023/01/13 01:12:08;;;;;;;0.80;0.50;;;;;;;10.42;62.50;99042.84;10277788;28;20482;-64
2023/01/13 01:17:10;;;;;;;3.85;0.85;;;;;;;10.41;62.45;99043.81;10306288;28;20061;-64
2023/01/13 01:22:12;;;;;;;1.13;0.55;;;;;;;10.37;63.06;99044.97;10303359;28;20050;-64
2023/01/13 01:27:14;;;;;;;2.17;0.70;;;;;;;10.32;63.18;99032.25;10269012;28;20065;-63
2023/01/13 01:32:15;;;;;;;1.13;0.50;;;;;;;10.26;63.32;99040.53;10289571;28;20152;-64
2023/01/13 01:37:17;;;;;;;1.15;0.50;;;;;;;10.28;63.08;99043.03;10280177;28;20049;-64
2023/01/13 01:47:41;;;;;;;2.45;0.77;;;;;;;10.28;63.25;99019.50;10273917;28;21481;-64
2023/01/13 01:52:48;;;;;;;1.95;0.55;;;;;;;10.37;63.06;99016.22;10272562;28;20365;-64
2023/01/13 01:57:54;;;;;;;2.05;0.80;;;;;;;10.30;63.06;99005.38;10270624;28;20047;-64
2023/01/13 02:02:58;;;;;;;1.10;0.40;;;;;;;10.21;63.44;98997.41;10271550;28;21199;-65
2023/01/13 02:08:00;;;;;;;1.52;0.35;;;;;;;10.14;63.81;99001.38;10267200;28;20051;-64
2023/01/13 02:13:07;;;;;;;0.38;0.38;;;;;;;10.20;63.74;98977.44;10275847;28;20198;-64
2023/01/13 02:18:36;;;;;;;0.93;0.55;;;;;;;10.04;64.00;98971.66;10305008;28;20073;-64
2023/01/13 02:35:19;;;;;;;0.20;0.20;;;;;;;10.27;62.95;98989.13;10282157;28;20058;-64
2023/01/13 02:40:31;;;;;;;0.47;0.32;;;;;;;10.28;63.23;98978.53;10272604;28;20057;-64
2023/01/13 02:45:46;;;;;;;0.40;0.30;;;;;;;10.44;62.94;98978.22;10262465;28;20062;-64
2023/01/13 02:50:58;;;;;;;0.50;0.30;;;;;;;10.25;63.44;98962.25;10265539;28;20495;-64
2023/01/13 02:56:02;;;;;;;1.48;0.40;;;;;;;10.32;63.38;98964.28;10273856;28;20206;-64
2023/01/13 03:01:04;;;;;;;1.33;0.35;;;;;;;10.35;63.43;98955.41;10274517;28;20050;-64
2023/01/13 03:06:28;;;;;;;0.52;0.28;;;;;;;10.23;63.48;98958.94;10300613;28;20082;-64
2023/01/13 03:11:44;;;;;;;0.38;0.30;;;;;;;10.37;63.60;98950.91;10272946;28;20519;-64
2023/01/13 03:17:05;;;;;;;1.73;0.30;;;;;;;10.33;63.41;98945.06;10270980;28;20047;-64
2023/01/13 03:22:13;;;;;;;1.38;0.30;;;;;;;10.42;63.64;98940.91;10296028;28;20046;-64
2023/01/13 03:27:35;;;;;;;0.57;0.30;;;;;;;10.33;63.70;98950.31;10311309;28;20145;-64
2023/01/13 03:32:54;;;;;;;0.93;0.32;;;;;;;10.21;64.87;98942.53;10277728;28;20046;-64
2023/01/13 03:38:04;;;;;;;0.65;0.30;;;;;;;10.10;65.31;98945.09;10276258;28;20495;-64
2023/01/13 03:48:34;;;;;;;0.30;0.30;;;;;;;9.77;66.92;99008.41;10272123;28;20097;-64
2023/01/13 03:53:45;;;;;;;0.93;0.47;;;;;;;9.56;65.65;99002.09;10279532;28;20061;-64
2023/01/13 03:58:48;;;;;;;;;;;;;;;9.05;67.22;98990.88;10280817;28;20102;-64
2023/01/13 04:03:53;;;;;;;0.98;0.28;;;;;;;9.35;66.21;99007.03;10285662;28;19945;-64
2023/01/13 04:09:05;;;;;;;1.48;0.40;;;;;;;9.35;66.35;99003.56;10294522;28;20050;-63
2023/01/13 04:14:10;;;;;;;0.20;0.20;;;;;;;9.23;66.74;99007.88;10304958;28;20057;-65
2023/01/13 04:19:14;;;;;;;0.32;0.30;;;;;;;8.98;67.13;99025.28;10274395;28;20098;-64
2023/01/13 04:24:16;;;;;;;1.13;0.40;;;;;;;8.89;66.84;99045.00;10269709;28;20043;-64
2023/01/13 04:29:17;;;;;;;1.85;0.57;;;;;;;8.69;66.81;99071.53;10269927;28;20047;-64
2023/01/13 04:34:19;;;;;;;1.95;0.57;;;;;;;8.49;66.06;99049.38;10268492;28;20047;-64
2023/01/13 04:39:21;;;;;;;1.30;0.55;;;;;;;8.30;65.88;99067.16;10281536;28;20404;-64
2023/01/13 04:44:22;;;;;;;1.27;0.60;;;;;;;8.27;65.91;99059.53;10271846;28;20058;-64
2023/01/13 04:49:24;;;;;;;2.20;0.70;;;;;;;8.14;66.42;99063.84;10272413;28;20038;-64
2023/01/13 04:54:28;;;;;;;0.93;0.60;;;;;;;8.32;66.41;99062.69;10268829;28;20106;-64
2023/01/13 04:59:30;;;;;;;2.20;0.70;;;;;;;8.25;66.45;99081.41;10282162;28;20426;-64
2023/01/13 05:04:35;;;;;;;4.07;1.00;;;;;;;8.24;66.46;99066.72;10270417;28;20093;-64
2023/01/13 05:09:36;;;;;;;3.63;0.80;;;;;;;8.02;66.45;99055.00;10273500;28;20046;-64
2023/01/13 05:19:58;;;;;;;2.05;0.80;;;;;;;7.97;66.88;99090.09;10267437;28;20499;-64
2023/01/13 05:30:22;;;;;;;3.65;0.95;;;;;;;8.00;66.58;99085.53;10266476;28;20047;-64
2023/01/13 05:35:24;;;;;;;3.90;0.95;;;;;;;8.02;66.31;99042.00;10270613;28;20043;-65
2023/01/13 05:45:50;;;;;;;2.53;1.20;;;;;;;7.94;66.02;99072.03;10265989;28;20051;-64
2023/01/13 05:50:52;;;;;;;3.17;0.98;;;;;;;7.84;65.58;99024.94;10275872;28;20039;-64
2023/01/13 05:55:55;;;;;;;21.27;13.77;;;;;;;7.95;65.70;99051.13;10267334;28;20090;-64
2023/01/13 06:01:05;;;;;;;4.03;1.40;;;;;;;7.83;65.63;99058.88;10267136;28;20582;-64
2023/01/13 06:06:08;;;;;;;3.08;0.88;;;;;;;7.76;65.62;99055.81;10288546;28;20336;-64
2023/01/13 06:11:10;;;;;;;4.35;1.30;;;;;;;7.74;66.02;99062.88;10274584;28;20059;-64
2023/01/13 06:16:12;;;;;;;2.85;0.90;;;;;;;7.74;65.96;99073.28;10272139;28;20052;-64
2023/01/13 06:21:13;;;;;;;3.08;1.00;;;;;;;7.77;65.80;99073.09;10267181;28;20051;-64
2023/01/13 06:26:19;;;;;;;3.60;0.80;;;;;;;7.82;65.54;99062.41;10280032;28;20046;-64
2023/01/13 06:31:21;;;;;;;2.35;0.90;;;;;;;7.70;65.54;99061.41;10270244;28;21820;-65
2023/01/13 06:36:28;;;;;;;4.70;1.10;;;;;;;7.57;65.44;99063.06;10262502;28;20055;-64
2023/01/13 06:46:52;;;;;;;4.00;1.30;;;;;;;7.42;65.61;99079.63;10264773;28;20054;-62
2023/01/13 06:51:54;;;;;;;6.50;1.30;;;;;;;7.73;65.02;99092.41;10281825;28;20050;-63
2023/01/13 06:56:56;;;;;;;3.78;1.05;;;;;;;7.72;64.70;99084.72;10265589;28;20043;-63
2023/01/13 07:02:01;;;;;;;2.15;1.13;;;;;;;7.72;64.98;99090.75;10272292;28;20062;-63
2023/01/13 07:07:03;;;;;;;4.88;1.20;;;;;;;7.57;64.42;99086.47;10269226;28;20507;-63
2023/01/13 07:12:05;;;;;;;3.13;1.00;;;;;;;7.60;64.18;99101.09;10265939;28;20046;-62
2023/01/13 07:17:07;;;;;;;6.80;1.20;;;;;;;7.71;64.66;99111.69;10260648;28;20057;-62
2023/01/13 07:22:08;;;;;;;3.47;0.90;;;;;;;7.81;63.87;99116.22;10267648;28;20454;-62
2023/01/13 07:27:10;;;;;;;6.72;1.30;;;;;;;8.03;63.45;99128.75;10265029;28;20077;-62
2023/01/13 07:32:12;;;;;;;3.75;1.00;;;;;;;7.95;63.34;99126.63;10284066;28;20513;-62
2023/01/13 07:37:13;;;;;;;5.35;1.30;;;;;;;7.96;63.18;99141.31;10277464;28;20058;-62
2023/01/13 07:47:35;;;;;;;6.15;1.33;;;;;;;7.83;63.11;99158.59;10282165;28;20154;-63
2023/01/13 07:52:37;;;;;;;3.67;1.08;;;;;;;7.89;62.98;99160.03;10282802;28;20053;-62
2023/01/13 07:57:38;;;;;;;8.05;1.40;;;;;;;7.78;63.20;99173.69;10274119;28;20046;-62
2023/01/13 08:02:40;;;;;;;8.85;1.17;;;;;;;7.92;62.53;99180.66;10276149;28;20157;-62
2023/01/13 08:07:42;;;;;;;4.30;1.30;;;;;;;7.92;62.64;99191.91;10278031;28;20050;-63
2023/01/13 08:18:03;;;;;;;7.50;1.23;;;;;;;7.95;62.00;99185.69;10276128;28;20427;-62
2023/01/13 08:23:05;;;;;;;4.22;1.30;;;;;;;7.92;62.06;99172.84;10277732;28;20058;-63
2023/01/13 08:28:08;;;;;;;6.68;1.10;;;;;;;8.07;61.87;99182.31;10273696;28;20394;-63
2023/01/13 08:33:11;;;;;;;2.20;1.15;;;;;;;8.24;61.15;99176.94;10278850;28;20046;-62
2023/01/13 08:38:12;;;;;;;4.05;1.20;;;;;;;8.15;60.98;99197.50;10288446;28;20038;-63
2023/01/13 08:43:14;;;;;;;4.13;1.50;;;;;;;8.25;60.71;99191.63;10286179;28;20047;-62
2023/01/13 08:48:16;;;;;;;4.05;1.40;;;;;;;8.17;60.40;99191.28;10271197;28;20112;-63
2023/01/13 08:53:19;;;;;;;6.53;1.42;;;;;;;8.22;59.74;99198.81;10291528;28;20375;-62
2023/01/13 08:58:20;;;;;;;7.22;1.25;;;;;;;8.22;59.80;99193.59;10269486;28;20042;-64
2023/01/13 09:03:22;;;;;;;6.47;1.40;;;;;;;7.98;59.85;99201.94;10271222;28;20054;-62
2023/01/13 09:08:23;;;;;;;7.20;1.77;;;;;;;8.14;59.43;99214.06;10273517;28;20545;-62
2023/01/13 09:13:25;;;;;;;7.85;1.67;;;;;;;8.06;58.67;99213.69;10268486;28;20105;-64
2023/01/13 09:18:27;;;;;;;6.20;1.85;;;;;;;8.20;58.59;99211.09;10267299;28;20448;-63
2023/01/13 09:23:28;;;;;;;8.50;2.00;;;;;;;8.27;59.12;99220.19;10268792;28;20107;-61
2023/01/13 09:28:31;;;;;;;7.90;1.80;;;;;;;8.14;58.33;99216.69;10284938;28;20058;-62
2023/01/13 09:38:53;;;;;;;6.50;2.03;;;;;;;7.95;58.12;99228.19;10267864;28;20061;-62
2023/01/13 09:43:58;;;;;;;7.82;1.73;;;;;;;8.07;57.97;99215.34;10272832;28;20548;-61
2023/01/13 09:49:02;;;;;;;9.68;1.98;;;;;;;8.10;57.48;99221.22;10270505;28;20070;-62
2023/01/13 09:54:27;;;;;;;8.15;1.75;;;;;;;8.15;57.03;99229.59;10264903;28;20138;-61
2023/01/13 09:59:33;;;;;;;8.25;2.08;;;;;;;8.36;56.47;99232.66;10264789;28;20150;-62
2023/01/13 10:04:35;;;;;;;6.90;1.80;;;;;;;8.28;56.56;99225.28;10271629;28;20318;-62
2023/01/13 10:09:51;;;;;;;7.45;2.15;;;;;;;8.66;55.56;99220.31;10266577;28;20404;-63
2023/01/13 10:14:56;;;;;;;9.70;1.95;;;;;;;8.52;54.88;99229.03;10277688;28;20140;-61
2023/01/13 10:20:16;;;;;;;7.75;1.95;;;;;;;8.43;54.09;99234.78;10265552;28;20051;-62
2023/01/13 10:25:23;;;;;;;9.80;1.85;;;;;;;8.68;55.31;99239.31;10256600;28;20403;-61
2023/01/13 10:30:32;;;;;;;7.90;1.80;;;;;;;8.39;55.51;99232.47;10260605;28;20046;-63
2023/01/13 10:35:52;;;;;;;9.32;1.90;;;;;;;8.42;55.27;99222.72;10263595;28;20403;-65
2023/01/13 10:40:54;;;;;;;9.00;2.08;;;;;;;8.46;55.43;99218.97;10259932;28;20060;-65
2023/01/13 10:46:06;;;;;;;7.55;1.88;;;;;;;8.44;55.73;99236.47;10269663;28;20055;-65
2023/01/13 10:51:19;;;;;;;10.60;2.10;;;;;;;8.67;54.97;99232.41;10261512;28;20058;-64
2023/01/13 10:56:25;;;;;;;10.23;2.20;;;;;;;8.47;55.35;99233.66;10263353;28;20074;-64
2023/01/13 11:01:29;;;;;;;8.57;2.20;;;;;;;8.52;55.01;99213.38;10277562;28;20157;-64
2023/01/13 11:06:32;;;;;;;13.70;2.38;;;;;;;8.42;54.41;99222.72;10263185;28;20102;-65
2023/01/13 11:11:43;;;;;;;7.03;1.92;;;;;;;8.58;54.19;99240.81;10265081;28;20046;-64
2023/01/13 11:16:52;;;;;;;10.25;2.38;;;;;;;9.01;53.45;99265.88;10272936;28;20050;-64
2023/01/13 11:22:09;;;;;;;9.45;2.20;;;;;;;8.96;51.01;99262.69;10266827;28;20185;-64
2023/01/13 11:27:26;;;;;;;10.95;1.92;;;;;;;9.58;52.24;99249.00;10264780;28;20418;-65
2023/01/13 11:32:35;;;;;;;9.98;2.20;;;;;;;9.33;52.21;99253.34;10264488;28;20043;-64
2023/01/13 11:37:42;;;;;;;10.98;2.15;;;;;;;9.16;52.09;99259.66;10282352;28;20093;-63
2023/01/13 11:43:00;;;;;;;8.70;2.22;;;;;;;9.17;51.59;99266.56;10263559;28;20333;-63
2023/01/13 11:48:03;;;;;;;13.40;2.53;;;;;;;9.22;51.66;99264.47;10272595;28;20074;-63
2023/01/13 11:53:41;;;;;;;12.85;2.50;;;;;;;9.30;50.87;99249.16;10267218;28;20399;-63
2023/01/13 11:59:10;;;;;;;9.40;2.20;;;;;;;9.16;51.03;99262.25;10265169;28;20407;-63
2023/01/13 12:04:40;;;;;;;8.80;2.05;;;;;;;9.23;51.00;99268.75;10266955;28;20529;-63
2023/01/13 12:10:24;;;;;;;11.38;2.60;;;;;;;9.35;52.17;99275.78;10257422;28;20713;-62
2023/01/13 12:16:08;;;;;;;10.40;2.50;;;;;;;9.41;50.46;99275.41;10303973;28;20493;-63
2023/01/13 12:21:35;;;;;;;13.02;2.92;;;;;;;9.46;50.55;99280.31;10263291;28;20687;-63
2023/01/13 12:26:42;;;;;;;11.02;2.30;;;;;;;9.22;50.13;99259.25;10262809;28;20047;-63
2023/01/13 12:31:48;;;;;;;10.98;2.38;;;;;;;9.05;50.73;99264.72;10270726;28;20070;-62
2023/01/13 12:37:32;;;;;;;10.90;2.50;;;;;;;8.91;50.55;99259.56;10265845;28;20057;-62
2023/01/13 12:48:45;;;;;;;10.07;2.45;;;;;;;8.95;49.98;99274.09;10268320;28;20505;-62
2023/01/13 12:53:46;;;;;;;11.02;2.08;;;;;;;8.78;51.46;99287.34;10265950;28;20039;-63
2023/01/13 12:58:48;;;;;;;10.00;2.30;;;;;;;8.63;53.00;99316.94;10268419;28;20047;-62
2023/01/13 13:04:17;;;;;;;8.23;1.92;;;;;;;8.05;54.64;99319.59;10267936;28;20090;-62
2023/01/13 13:09:25;;;;;;;8.65;3.15;;;;;;;7.80;56.38;99322.78;10266292;28;20053;-62
2023/01/13 13:14:36;;;;;;;5.95;1.63;;;;;;;7.87;57.03;99333.69;10275077;28;20415;-63
2023/01/13 13:19:37;;;;;;;9.65;3.10;;;;;;;7.97;56.13;99334.84;10274081;28;20050;-63
2023/01/13 13:24:40;;;;;;;5.90;1.90;;;;;;;8.02;56.35;99336.22;10278054;28;20049;-63
2023/01/13 13:30:03;;;;;;;5.97;1.80;;;;;;;8.02;56.40;99344.03;10265450;28;20050;-63
2023/01/13 13:35:30;;;;;;;6.75;1.98;;;;;;;7.95;56.51;99354.91;10276053;28;20388;-62
2023/01/13 13:51:35;;;;;;;6.18;1.40;;;;;;;7.66;58.19;99377.41;10275927;28;20058;-62
2023/01/13 13:56:44;;;;;;;6.55;1.70;;;;;;;7.73;57.75;99376.13;10271458;28;20255;-62
2023/01/13 14:01:52;;;;;;;6.32;1.80;;;;;;;7.98;57.27;99352.13;10269573;28;20050;-63
2023/01/13 14:06:57;;;;;;;5.22;1.67;;;;;;;8.04;57.26;99357.81;10273805;28;20233;-63
2023/01/13 14:12:07;;;;;;;5.20;1.50;;;;;;;8.09;57.56;99359.31;10285031;28;20050;-62
2023/01/13 14:17:21;;;;;;;8.18;1.67;;;;;;;8.03;58.07;99363.97;10276137;28;20046;-63
2023/01/13 14:22:23;;;;;;;8.50;1.80;;;;;;;8.16;58.04;99368.50;10273136;28;20679;-63
2023/01/13 14:27:26;;;;;;;6.05;1.70;;;;;;;8.07;58.36;99367.22;10264518;28;20540;-62
2023/01/13 14:32:35;;;;;;;9.75;2.85;;;;;;;8.01;58.77;99373.63;10275030;28;20116;-62
2023/01/13 14:37:41;;;;;;;8.98;2.20;;;;;;;7.73;59.50;99377.91;10259724;28;20388;-63
2023/01/13 14:42:43;;;;;;;9.52;2.28;;;;;;;7.69;59.39;99392.84;10263321;28;20140;-63
2023/01/13 14:47:51;;;;;;;8.82;1.92;;;;;;;7.86;59.17;99402.28;10263208;28;20051;-63
2023/01/13 14:52:59;;;;;;;10.88;2.15;;;;;;;7.91;58.33;99406.34;10272400;28;20050;-63
2023/01/13 14:58:19;;;;;;;9.45;2.40;;;;;;;7.78;57.40;99415.75;10264338;28;20058;-63
2023/01/13 15:03:20;;;;;;;8.20;1.92;;;;;;;8.04;57.83;99417.72;10266453;28;20053;-63
2023/01/13 15:08:28;;;;;;;9.10;2.35;;;;;;;8.03;58.01;99431.69;10270341;28;20043;-62
2023/01/13 15:13:34;;;;;;;7.65;1.90;;;;;;;7.83;58.36;99449.34;10273991;28;20305;-63
2023/01/13 15:18:38;;;;;;;7.57;2.10;;;;;;;7.75;58.61;99470.56;10267643;28;20058;-63
2023/01/13 15:23:40;;;;;;;7.13;1.98;;;;;;;7.88;58.45;99471.59;10260912;28;20581;-63
2023/01/13 15:28:42;;;;;;;8.68;2.15;;;;;;;7.88;58.51;99482.00;10266361;28;20627;-63
2023/01/13 15:33:44;;;;;;;10.27;2.10;;;;;;;7.80;58.46;99491.16;10264985;28;20503;-63
2023/01/13 15:38:46;;;;;;;12.85;2.03;;;;;;;7.57;58.84;99486.38;10273867;28;20385;-63
2023/01/13 15:49:24;;;;;;;8.35;1.90;;;;;;;7.31;59.78;99489.53;10257331;28;20082;-63
2023/01/13 15:54:25;;;;;;;9.73;2.22;;;;;;;7.33;59.67;99495.50;10271726;28;20047;-63
2023/01/13 15:59:27;;;;;;;8.00;2.20;;;;;;;7.32;59.44;99502.47;10272649;28;20062;-63
2023/01/13 16:04:28;;;;;;;11.52;2.38;;;;;;;7.27;59.34;99522.69;10261916;28;20055;-63
2023/01/13 16:09:30;;;;;;;8.20;2.30;;;;;;;7.31;59.18;99537.19;10272621;28;20760;-62
2023/01/13 16:14:32;;;;;;;8.55;2.05;;;;;;;7.21;58.95;99541.19;10282588;28;20057;-64
2023/01/13 16:19:33;;;;;;;8.27;2.03;;;;;;;7.38;58.47;99554.19;10276178;28;20058;-64
2023/01/13 16:24:35;;;;;;;9.93;2.10;;;;;;;7.50;58.23;99557.88;10279323;28;20298;-64
2023/01/13 16:29:37;;;;;;;13.00;3.22;;;;;;;7.61;58.00;99563.38;10288576;28;20486;-64
2023/01/13 16:34:39;;;;;;;8.45;2.10;;;;;;;7.51;57.70;99562.19;10286533;28;20414;-65
2023/01/13 16:39:42;;;;;;;9.60;2.10;;;;;;;7.46;58.01;99578.03;10287732;28;20055;-65
2023/01/13 16:44:47;;;;;;;11.32;2.53;;;;;;;7.45;58.10;99589.34;10292470;28;20745;-65
2023/01/13 16:49:48;;;;;;;11.27;2.10;;;;;;;7.45;58.00;99591.13;10292683;28;20106;-65
2023/01/13 16:54:50;;;;;;;9.18;2.15;;;;;;;7.61;57.67;99599.81;10292939;28;20047;-65
2023/01/13 16:59:52;;;;;;;11.23;2.78;;;;;;;7.48;57.95;99594.41;10273163;28;20369;-65
2023/01/13 17:04:53;;;;;;;11.43;2.40;;;;;;;7.34;58.02;99607.28;10276921;28;20070;-64
2023/01/13 17:09:55;;;;;;;9.70;2.15;;;;;;;7.48;57.95;99617.81;10283492;28;20414;-65
2023/01/13 17:14:56;;;;;;;10.82;2.53;;;;;;;7.51;57.96;99617.63;10280881;28;20257;-65
2023/01/13 17:19:58;;;;;;;11.10;2.60;;;;;;;7.46;58.16;99631.81;10282434;28;20122;-64
2023/01/13 17:25:00;;;;;;;10.13;2.58;;;;;;;7.21;58.31;99634.81;10285870;28;20450;-65
2023/01/13 17:30:02;;;;;;;12.00;2.63;;;;;;;7.23;58.82;99632.16;10287097;28;20062;-65
2023/01/13 17:35:04;;;;;;;9.10;2.30;;;;;;;7.24;58.69;99645.09;10283909;28;20046;-65
2023/01/13 17:40:06;;;;;;;11.73;4.60;;;;;;;7.33;58.90;99649.81;10277706;28;20153;-65
2023/01/13 17:45:10;;;;;;;14.32;2.80;;;;;;;7.26;59.32;99658.84;10271315;28;20054;-65
2023/01/13 17:50:12;;;;;;;11.52;2.58;;;;;;;7.15;59.27;99668.94;10270198;28;20499;-65
2023/01/13 17:55:14;;;;;;;10.23;2.35;;;;;;;7.11;58.98;99676.06;10270311;28;20043;-65
2023/01/13 18:00:16;;;;;;;9.00;2.22;;;;;;;7.09;59.13;99683.09;10271646;28;20561;-65
2023/01/13 18:05:17;;;;;;;13.45;2.83;;;;;;;7.06;58.99;99685.03;10264765;28;20055;-65
2023/01/13 18:10:19;;;;;;;20.60;8.30;;;;;;;7.17;58.70;99680.97;10270325;28;20054;-65
2023/01/13 18:15:21;;;;;;;14.57;4.10;;;;;;;7.06;58.73;99692.81;10260448;28;20165;-65
2023/01/13 18:31:07;;;;;;;16.27;4.88;;;;;;;7.08;58.92;99702.22;10257891;28;20038;-65
2023/01/13 18:36:09;;;;;;;11.27;3.25;;;;;;;7.03;59.05;99718.97;10261611;28;20141;-65
2023/01/13 18:46:31;;;;;;;22.02;5.53;;;;;;;7.02;59.18;99738.09;10264240;28;20078;-65
2023/01/13 18:51:33;;;;;;;19.75;5.75;;;;;;;7.06;58.99;99727.44;10258818;28;20133;-65
2023/01/13 18:56:34;;;;;;;18.52;5.45;;;;;;;6.93;59.27;99736.78;10266081;28;20608;-65
2023/01/13 19:01:36;;;;;;;16.73;6.35;;;;;;;6.90;59.44;99749.91;10276039;28;20055;-65
2023/01/13 19:06:39;;;;;;;24.95;8.82;;;;;;;7.07;59.49;99751.69;10251637;28;20042;-65
2023/01/13 19:11:45;;;;;;;14.23;4.35;;;;;;;7.04;59.24;99764.88;10263298;28;20041;-65
2023/01/13 19:16:46;;;;;;;21.90;7.63;;;;;;;7.31;59.16;99771.31;10265964;28;20392;-65
2023/01/13 19:21:48;;;;;;;27.92;9.82;;;;;;;7.27;59.87;99782.78;10263898;28;20050;-65
2023/01/13 19:26:50;;;;;;;19.65;6.50;;;;;;;7.10;61.21;99791.38;10262583;28;20491;-65
2023/01/13 19:31:52;;;;;;;19.70;5.88;;;;;;;7.08;61.60;99805.41;10258412;28;20513;-65
2023/01/13 19:36:54;;;;;;;18.02;3.95;;;;;;;6.83;62.54;99815.25;10258199;28;20437;-65
2023/01/13 19:47:16;;;;;;;28.98;11.15;;;;;;;6.71;63.19;99828.81;10261412;28;20050;-65
2023/01/13 19:52:18;;;;;;;21.45;7.13;;;;;;;6.75;63.05;99833.81;10267075;28;20054;-65
2023/01/13 19:57:21;;;;;;;18.60;4.13;;;;;;;6.64;63.19;99835.19;10261022;28;20051;-65
2023/01/13 20:02:30;;;;;;;19.90;6.70;;;;;;;6.47;63.89;99848.94;10263380;28;20058;-65
2023/01/13 20:07:33;;;;;;;21.58;7.45;;;;;;;6.59;63.48;99853.59;10255913;28;20383;-65
2023/01/13 20:12:35;;;;;;;20.05;4.82;;;;;;;6.44;64.35;99874.22;10260544;28;20058;-65
2023/01/13 20:17:37;;;;;;;14.80;3.00;;;;;;;6.40;64.09;99903.81;10265903;28;20401;-65
2023/01/13 20:22:39;;;;;;;12.32;2.70;;;;;;;6.46;64.24;99913.94;10262971;28;20606;-65
2023/01/13 20:27:41;;;;;;;9.50;2.30;;;;;;;6.44;64.00;99921.81;10260485;28;20294;-65
2023/01/13 20:32:43;;;;;;;10.15;2.50;;;;;;;6.57;64.37;99928.16;10273423;28;20042;-65
2023/01/13 20:37:45;;;;;;;9.95;2.50;;;;;;;6.38;65.23;99913.44;10263409;28;20755;-65
2023/01/13 20:42:46;;;;;;;7.88;2.33;;;;;;;6.30;65.18;99930.22;10269029;28;20411;-65
2023/01/13 20:47:48;;;;;;;10.07;4.38;;;;;;;6.30;65.36;99921.56;10271834;28;20047;-65
2023/01/13 20:52:51;;;;;;;16.02;5.68;;;;;;;5.92;66.78;99928.31;10279436;28;20443;-65
2023/01/13 20:57:53;;;;;;;20.30;9.27;;;;;;;5.72;67.15;99930.88;10268333;28;20045;-65
2023/01/13 21:02:54;;;;;;;10.60;3.00;;;;;;;5.46;67.59;99933.66;10265151;28;20415;-65
2023/01/13 21:07:56;;;;;;;11.88;2.17;;;;;;;5.41;68.18;99935.59;10275391;28;20051;-65
2023/01/13 21:23:43;;;;;;;11.93;3.13;;;;;;;5.78;67.61;99932.38;10266833;28;20110;-66
2023/01/13 21:28:45;;;;;;;12.07;2.70;;;;;;;5.75;67.65;99932.50;10270838;28;20042;-66
2023/01/13 21:33:52;;;;;;;20.00;3.30;;;;;;;5.68;67.95;99933.63;10274918;28;20043;-66
2023/01/13 21:38:56;;;;;;;10.15;2.55;;;;;;;5.67;67.97;99932.81;10271312;28;20506;-66
2023/01/13 21:49:18;;;;;;;18.95;3.17;;;;;;;5.57;68.25;99941.00;10269704;28;20615;-65
2023/01/13 21:54:19;;;;;;;17.50;3.03;;;;;;;5.81;67.72;99948.66;10271538;28;20051;-66
2023/01/13 21:59:21;;;;;;;15.35;3.25;;;;;;;5.91;67.20;99947.41;10271272;28;20047;-65
2023/01/13 22:04:22;;;;;;;15.10;3.30;;;;;;;5.89;67.31;99949.22;10271451;28;20050;-65
2023/01/13 22:09:24;;;;;;;15.98;3.25;;;;;;;5.85;67.37;99946.78;10262653;28;20046;-66
2023/01/13 22:14:26;;;;;;;11.75;2.75;;;;;;;5.97;67.06;99934.16;10260125;28;20058;-66
2023/01/13 22:19:29;;;;;;;14.60;2.85;;;;;;;6.03;66.59;99956.44;10265812;28;20051;-65
2023/01/13 22:24:30;;;;;;;13.70;2.70;;;;;;;5.99;66.31;99955.72;10271323;28;20058;-65
2023/01/13 22:29:32;;;;;;;12.50;2.90;;;;;;;6.01;66.30;99969.47;10262969;28;20058;-65
2023/01/13 22:34:34;;;;;;;16.90;3.20;;;;;;;6.06;66.25;99985.69;10265192;28;20407;-65
2023/01/13 22:39:36;;;;;;;13.90;2.60;;;;;;;6.10;66.00;100000.25;10265735;28;20043;-65
2023/01/13 22:44:37;;;;;;;11.68;2.80;;;;;;;6.19;65.93;100004.22;10261433;28;20093;-65
2023/01/13 22:49:40;;;;;;;12.25;2.55;;;;;;;6.23;65.89;100011.84;10262472;28;20042;-65
2023/01/13 22:54:42;;;;;;;11.80;4.30;;;;;;;6.37;65.37;100005.28;10264928;28;20379;-65
2023/01/13 22:59:44;;;;;;;12.30;3.25;;;;;;;6.37;65.35;100013.06;10272167;28;20046;-65
2023/01/13 23:04:46;;;;;;;11.57;2.53;;;;;;;6.30;65.54;100015.91;10273090;28;20406;-65
2023/01/13 23:09:47;;;;;;;9.60;2.40;;;;;;;6.34;65.53;100011.44;10265021;28;20050;-65
2023/01/13 23:14:49;;;;;;;10.30;2.60;;;;;;;6.48;65.04;100016.03;10246974;28;20261;-65
2023/01/13 23:19:51;;;;;;;13.30;2.80;;;;;;;6.33;65.26;100022.72;10263504;28;20418;-65
2023/01/13 23:24:52;;;;;;;13.05;2.78;;;;;;;6.43;65.01;100026.63;10262485;28;20105;-65
2023/01/13 23:29:54;;;;;;;14.13;3.28;;;;;;;6.34;65.26;100025.28;10258967;28;20054;-65
2023/01/13 23:34:56;;;;;;;12.93;3.08;;;;;;;6.34;65.03;100027.88;10264235;28;20046;-65
2023/01/13 23:39:58;;;;;;;12.43;3.20;;;;;;;6.32;65.14;100029.69;10262729;28;20061;-65
2023/01/13 23:44:59;;;;;;;13.38;2.72;;;;;;;6.43;64.97;100031.81;10262724;28;20059;-65
2023/01/13 23:50:01;;;;;;;15.00;3.20;;;;;;;6.48;64.75;100021.25;10254881;28;20223;-65
2023/01/13 23:55:03;;;;;;;20.85;3.53;;;;;;;6.23;64.63;100022.22;10257788;28;20211;-65
